createdAt,value
2019-01-14T00:00:16.225Z,1.13
2019-01-14T00:03:03.622Z,1.20
2019-01-14T00:05:50.947Z,1.03
2019-01-14T00:08:37.693Z,0.90
2019-01-14T00:11:25.254Z,1.27
2019-01-14T00:14:12.865Z,0.90
2019-01-14T00:17:00.112Z,1.10
2019-01-14T00:19:47.926Z,0.90
2019-01-14T00:22:35.182Z,0.87
2019-01-14T00:25:22.182Z,1.20
2019-01-14T00:28:09.206Z,0.90
2019-01-14T00:30:56.235Z,1.40
2019-01-14T00:33:43.378Z,1.80
2019-01-14T00:36:30.839Z,1.87
2019-01-14T00:39:17.748Z,1.10
2019-01-14T00:42:04.794Z,1.10
2019-01-14T00:44:52.089Z,1.67
2019-01-14T00:47:38.939Z,1.77
2019-01-14T00:50:26.197Z,1.90
2019-01-14T00:53:13.467Z,1.80
2019-01-14T00:56:00.557Z,0.90
2019-01-14T00:58:47.882Z,1.10
2019-01-14T01:01:35.208Z,1.10
2019-01-14T01:04:22.331Z,0.83
2019-01-14T01:07:09.574Z,0.97
2019-01-14T01:09:56.746Z,0.90
2019-01-14T01:12:43.962Z,0.70
2019-01-14T01:15:31.193Z,0.80
2019-01-14T01:18:18.184Z,0.90
2019-01-14T01:21:05.248Z,0.80
2019-01-14T01:23:52.338Z,1.10
2019-01-14T01:26:39.706Z,0.90
2019-01-14T01:29:26.710Z,0.80
2019-01-14T01:32:13.838Z,0.80
2019-01-14T01:35:01.429Z,1.57
2019-01-14T01:37:48.297Z,0.93
2019-01-14T01:40:35.605Z,1.20
2019-01-14T01:43:23.063Z,0.90
2019-01-14T01:46:10.071Z,1.40
2019-01-14T01:48:57.355Z,0.90
2019-01-14T01:51:44.753Z,1.10
2019-01-14T01:54:31.497Z,0.70
2019-01-14T01:57:18.522Z,0.70
2019-01-14T02:00:06.771Z,0.50
2019-01-14T02:02:53.762Z,0.60
2019-01-14T02:05:41.106Z,0.93
2019-01-14T02:08:28.441Z,0.77
2019-01-14T02:11:15.339Z,0.83
2019-01-14T02:14:02.709Z,0.67
2019-01-14T02:16:49.707Z,1.00
2019-01-14T02:19:36.605Z,1.00
2019-01-14T02:22:23.614Z,0.83
2019-01-14T02:25:11.130Z,0.97
2019-01-14T02:27:58.177Z,1.27
2019-01-14T02:30:45.497Z,1.57
2019-01-14T02:33:32.424Z,1.20
2019-01-14T02:36:19.776Z,1.83
2019-01-14T02:39:07.650Z,1.40
2019-01-14T02:41:54.738Z,2.13
2019-01-14T02:44:41.860Z,1.43
2019-01-14T02:47:28.594Z,2.13
2019-01-14T02:50:15.538Z,2.10
2019-01-14T02:53:02.531Z,1.50
2019-01-14T02:55:49.837Z,1.33
2019-01-14T02:58:37.117Z,1.50
2019-01-14T03:01:23.853Z,1.53
2019-01-14T03:04:11.132Z,2.00
2019-01-14T03:06:58.427Z,1.57
2019-01-14T03:09:45.769Z,1.87
2019-01-14T03:12:32.427Z,2.03
2019-01-14T03:15:20.050Z,1.10
2019-01-14T03:18:07.041Z,1.50
2019-01-14T03:20:54.250Z,1.77
2019-01-14T03:23:41.448Z,1.40
2019-01-14T03:26:28.471Z,1.60
2019-01-14T03:29:15.251Z,1.57
2019-01-14T03:32:02.151Z,1.60
2019-01-14T03:34:49.266Z,1.73
2019-01-14T03:37:36.605Z,1.90
2019-01-14T03:40:23.678Z,1.90
2019-01-14T03:43:10.613Z,1.40
2019-01-14T03:45:57.576Z,1.47
2019-01-14T03:48:44.939Z,1.70
2019-01-14T03:51:31.776Z,1.80
2019-01-14T03:54:19.197Z,1.83
2019-01-14T03:57:06.984Z,1.60
2019-01-14T03:59:53.899Z,1.67
2019-01-14T04:02:40.955Z,2.20
2019-01-14T04:05:28.414Z,1.03
2019-01-14T04:08:15.261Z,1.33
2019-01-14T04:11:02.675Z,1.70
2019-01-14T04:13:50.024Z,1.60
2019-01-14T04:16:36.846Z,1.30
2019-01-14T04:19:23.864Z,1.30
2019-01-14T04:22:11.278Z,1.80
2019-01-14T04:24:58.551Z,1.60
2019-01-14T04:27:45.400Z,1.47
2019-01-14T04:30:33.261Z,2.07
2019-01-14T04:33:20.335Z,1.20
2019-01-14T04:36:07.621Z,2.07
2019-01-14T04:38:54.777Z,1.40
2019-01-14T04:41:41.725Z,2.13
2019-01-14T04:44:28.979Z,2.30
2019-01-14T04:47:15.991Z,1.80
2019-01-14T04:50:03.585Z,2.70
2019-01-14T04:52:51.064Z,2.00
2019-01-14T04:55:37.877Z,2.10
2019-01-14T04:58:25.073Z,1.80
2019-01-14T05:01:11.961Z,1.73
2019-01-14T05:03:58.697Z,2.20
2019-01-14T05:06:45.802Z,1.63
2019-01-14T05:09:33.235Z,2.20
2019-01-14T05:12:20.046Z,2.20
2019-01-14T05:15:07.924Z,1.73
2019-01-14T05:17:55.114Z,2.17
2019-01-14T05:20:42.250Z,1.93
2019-01-14T05:23:29.285Z,2.13
2019-01-14T05:26:16.499Z,2.20
2019-01-14T05:29:03.589Z,1.83
2019-01-14T05:31:50.931Z,1.33
2019-01-14T05:34:38.080Z,2.10
2019-01-14T05:37:25.038Z,1.80
2019-01-14T05:40:13.334Z,1.20
2019-01-14T05:43:00.525Z,2.40
2019-01-14T05:45:47.980Z,2.07
2019-01-14T05:48:35.402Z,2.63
2019-01-14T05:51:22.585Z,2.10
2019-01-14T05:54:09.676Z,1.97
2019-01-14T05:56:56.534Z,2.13
2019-01-14T05:59:43.272Z,1.70
2019-01-14T06:02:30.321Z,2.00
2019-01-14T06:05:20.384Z,1.57
2019-01-14T06:08:07.159Z,1.83
2019-01-14T06:10:54.004Z,3.23
2019-01-14T06:13:41.470Z,1.80
2019-01-14T06:16:28.396Z,3.40
2019-01-14T06:19:15.451Z,2.53
2019-01-14T06:22:02.752Z,2.40
2019-01-14T06:24:50.113Z,2.00
2019-01-14T06:27:37.373Z,2.10
2019-01-14T06:30:25.627Z,1.73
2019-01-14T06:33:13.068Z,1.93
2019-01-14T06:36:00.172Z,2.70
2019-01-14T06:41:43.757Z,2.37
2019-01-14T06:44:30.956Z,2.60
2019-01-14T06:47:18.422Z,2.30
2019-01-14T06:50:06.373Z,1.97
2019-01-14T06:52:53.297Z,2.10
2019-01-14T06:55:40.218Z,1.60
2019-01-14T06:58:28.204Z,2.60
2019-01-14T07:01:15.995Z,2.67
2019-01-14T07:42:37.949Z,2.40
2019-01-14T07:45:24.896Z,2.80
2019-01-14T07:48:12.711Z,3.40
2019-01-14T07:51:00.256Z,2.80
2019-01-14T07:53:47.071Z,2.50
2019-01-14T07:56:34.368Z,3.20
2019-01-14T07:59:21.819Z,3.07
2019-01-14T08:02:09.153Z,3.30
2019-01-14T08:04:56.188Z,3.20
2019-01-14T08:07:43.871Z,2.60
2019-01-14T08:10:31.518Z,2.63
2019-01-14T08:13:19.834Z,2.90
2019-01-14T08:16:08.876Z,2.20
2019-01-14T08:18:56.023Z,3.07
2019-01-14T08:21:43.381Z,2.77
2019-01-14T08:24:32.071Z,3.27
2019-01-14T08:27:20.807Z,3.03
2019-01-14T08:30:37.530Z,2.60
2019-01-14T08:33:26.378Z,2.20
2019-01-14T08:36:17.134Z,2.50
2019-01-14T08:39:07.178Z,3.30
2019-01-14T08:42:04.269Z,2.63
2019-01-14T08:44:51.924Z,3.07
2019-01-14T08:47:42.352Z,3.07
2019-01-14T08:50:29.302Z,2.77
2019-01-14T08:53:18.045Z,4.37
2019-01-14T08:56:05.566Z,2.60
2019-01-14T08:58:53.602Z,2.70
2019-01-14T09:01:45.673Z,3.40
2019-01-14T09:08:03.786Z,3.17
2019-01-14T09:10:57.546Z,2.57
2019-01-14T10:03:51.728Z,3.90
2019-01-14T10:06:41.741Z,3.17
2019-01-14T10:09:32.957Z,2.43
2019-01-14T10:12:20.498Z,3.13
2019-01-14T10:15:15.933Z,2.70
2019-01-14T10:18:28.336Z,4.17
2019-01-14T10:21:33.418Z,3.73
2019-01-14T22:23:07.360Z,9.07
2019-01-14T22:25:56.846Z,6.43
2019-01-14T22:28:56.338Z,8.67
2019-01-14T22:31:44.730Z,7.20
2019-01-14T22:34:35.484Z,7.60
2019-01-14T22:37:23.097Z,8.00
2019-01-14T22:40:10.600Z,7.60
2019-01-14T22:42:57.847Z,7.63
2019-01-14T22:45:44.973Z,8.37
2019-01-14T22:48:32.159Z,7.97
2019-01-14T22:51:19.212Z,6.90
2019-01-14T22:54:07.869Z,5.80
2019-01-14T22:56:56.335Z,7.80
2019-01-14T22:59:44.078Z,6.87
2019-01-14T23:02:31.797Z,6.60
2019-01-14T23:05:19.187Z,5.70
2019-01-14T23:08:06.376Z,6.33
2019-01-14T23:10:53.686Z,6.40
2019-01-14T23:13:40.962Z,7.40
2019-01-14T23:16:28.083Z,6.77
2019-01-14T23:19:15.593Z,5.70
2019-01-14T23:22:03.695Z,7.10
2019-01-14T23:24:51.834Z,6.23
2019-01-14T23:27:39.465Z,7.67
2019-01-14T23:30:26.497Z,8.30
2019-01-14T23:33:13.365Z,6.63
2019-01-14T23:36:01.060Z,6.90
2019-01-14T23:38:48.348Z,6.33
2019-01-14T23:41:35.369Z,6.33
2019-01-14T23:44:22.537Z,7.53
2019-01-14T23:47:10.733Z,5.60
2019-01-14T23:49:57.913Z,6.00
2019-01-14T23:52:45.582Z,5.57
2019-01-14T23:55:33.040Z,4.97
2019-01-14T23:58:19.876Z,4.70
